createdAt,value
2022-10-23T00:01:36.646Z,99233.69
2022-10-23T00:04:20.537Z,99230.28
2022-10-23T00:06:48.288Z,99226.78
2022-10-23T00:09:18.119Z,99225.22
2022-10-23T00:11:47.679Z,99228.59
2022-10-23T00:14:15.266Z,99217.50
2022-10-23T00:16:41.807Z,99225.16
2022-10-23T00:19:08.370Z,99220.13
2022-10-23T00:21:35.022Z,99222.69
2022-10-23T00:24:01.716Z,99213.09
2022-10-23T00:26:28.387Z,99208.81
2022-10-23T00:28:55.844Z,99209.69
2022-10-23T00:31:23.675Z,99212.38
2022-10-23T00:33:50.952Z,99208.81
2022-10-23T00:36:19.810Z,99207.97
2022-10-23T00:38:47.380Z,99206.22
2022-10-23T00:41:22.997Z,99199.47
2022-10-23T00:44:03.894Z,99202.84
2022-10-23T00:46:31.146Z,99202.00
2022-10-23T00:48:59.090Z,99198.41
2022-10-23T00:51:29.586Z,99195.09
2022-10-23T00:54:06.670Z,99189.06
2022-10-23T00:56:46.292Z,99195.03
2022-10-23T00:59:13.669Z,99194.97
2022-10-23T01:01:40.836Z,99188.91
2022-10-23T01:04:08.596Z,99188.91
2022-10-23T01:06:37.819Z,99198.38
2022-10-23T01:09:07.028Z,99193.25
2022-10-23T01:11:42.783Z,99188.06
2022-10-23T01:14:12.376Z,99188.06
2022-10-23T01:17:01.395Z,99181.16
2022-10-23T01:19:36.937Z,99187.19
2022-10-23T01:22:19.224Z,99182.94
2022-10-23T01:24:57.839Z,99188.06
2022-10-23T01:27:27.678Z,99182.16
2022-10-23T01:30:03.453Z,99175.28
2022-10-23T01:32:51.128Z,99178.72
2022-10-23T01:35:37.928Z,99172.88
2022-10-23T01:38:12.591Z,99177.06
2022-10-23T01:40:48.905Z,99170.34
2022-10-23T01:43:23.006Z,99169.56
2022-10-23T01:45:55.080Z,99171.13
2022-10-23T01:48:28.670Z,99181.50
2022-10-23T01:50:59.572Z,99179.78
2022-10-23T01:53:31.179Z,99183.97
2022-10-23T01:56:01.182Z,99178.09
2022-10-23T01:58:29.698Z,99176.47
2022-10-23T02:01:01.416Z,99180.00
2022-10-23T02:03:31.427Z,99182.47
2022-10-23T02:05:58.168Z,99168.72
2022-10-23T02:08:25.777Z,99184.91
2022-10-23T02:11:12.871Z,99181.41
2022-10-23T02:14:18.581Z,99178.94
2022-10-23T02:16:54.513Z,99178.09
2022-10-23T02:19:26.993Z,99174.75
2022-10-23T02:22:01.914Z,99175.69
2022-10-23T02:24:31.497Z,99180.00
2022-10-23T02:27:02.722Z,99174.84
2022-10-23T02:29:39.159Z,99175.69
2022-10-23T02:32:09.112Z,99175.63
2022-10-23T02:34:36.074Z,99174.75
2022-10-23T02:37:03.467Z,99178.06
2022-10-23T02:39:30.442Z,99174.69
2022-10-23T02:42:22.331Z,99172.25
2022-10-23T02:44:59.081Z,99173.84
2022-10-23T02:47:46.021Z,99180.63
2022-10-23T02:50:36.099Z,99167.00
2022-10-23T02:53:15.531Z,99170.34
2022-10-23T02:56:03.932Z,99175.47
2022-10-23T02:58:44.958Z,99175.56
2022-10-23T03:01:20.100Z,99180.66
2022-10-23T03:03:54.238Z,99178.09
2022-10-23T03:06:22.231Z,99178.88
2022-10-23T03:09:08.197Z,99174.69
2022-10-23T03:11:34.945Z,99174.69
2022-10-23T03:14:01.742Z,99182.41
2022-10-23T03:16:28.577Z,99179.03
2022-10-23T03:18:55.582Z,99170.44
2022-10-23T03:21:22.158Z,99174.75
2022-10-23T03:23:48.774Z,99180.00
2022-10-23T03:26:16.279Z,99174.03
2022-10-23T03:28:42.828Z,99176.56
2022-10-23T03:31:09.449Z,99167.19
2022-10-23T03:33:36.051Z,99171.56
2022-10-23T03:36:02.593Z,99170.75
2022-10-23T03:38:29.192Z,99180.03
2022-10-23T03:40:55.793Z,99174.94
2022-10-23T03:43:22.311Z,99181.78
2022-10-23T03:45:48.871Z,99177.47
2022-10-23T03:48:15.856Z,99177.47
2022-10-23T03:50:42.417Z,99175.84
2022-10-23T03:53:08.977Z,99186.06
2022-10-23T03:55:35.607Z,99169.91
2022-10-23T03:58:02.153Z,99179.34
2022-10-23T04:00:28.930Z,99181.91
2022-10-23T04:02:55.566Z,99173.34
2022-10-23T04:05:22.103Z,99175.91
2022-10-23T04:07:48.695Z,99176.00
2022-10-23T04:10:15.225Z,99163.19
2022-10-23T04:12:42.104Z,99160.66
2022-10-23T04:15:09.227Z,99173.34
2022-10-23T04:17:35.772Z,99163.19
2022-10-23T04:20:02.301Z,99171.69
2022-10-23T04:22:28.954Z,99176.91
2022-10-23T04:24:56.047Z,99158.97
2022-10-23T04:27:22.914Z,99165.03
2022-10-23T04:29:49.530Z,99162.47
2022-10-23T04:32:16.084Z,99165.06
2022-10-23T04:34:42.684Z,99154.00
2022-10-23T04:37:09.250Z,99154.84
2022-10-23T04:39:35.765Z,99161.66
2022-10-23T04:42:02.351Z,99163.44
2022-10-23T04:44:28.916Z,99165.16
2022-10-23T04:46:55.442Z,99163.31
2022-10-23T04:49:22.085Z,99177.91
2022-10-23T04:51:48.700Z,99171.13
2022-10-23T04:54:15.277Z,99175.44
2022-10-23T04:56:41.910Z,99169.41
2022-10-23T04:59:09.108Z,99174.59
2022-10-23T05:01:35.851Z,99169.50
2022-10-23T05:04:02.642Z,99178.94
2022-10-23T05:06:29.217Z,99184.09
2022-10-23T05:08:56.246Z,99168.72
2022-10-23T05:11:23.070Z,99175.69
2022-10-23T05:13:49.716Z,99177.41
2022-10-23T05:16:52.109Z,99169.72
2022-10-23T05:19:24.396Z,99171.50
2022-10-23T05:21:55.815Z,99172.41
2022-10-23T05:24:23.156Z,99175.00
2022-10-23T05:26:51.799Z,99169.13
2022-10-23T05:29:19.298Z,99170.91
2022-10-23T05:31:46.856Z,99169.22
2022-10-23T05:34:16.931Z,99174.41
2022-10-23T05:36:43.656Z,99171.78
2022-10-23T05:39:10.282Z,99179.59
2022-10-23T05:41:36.864Z,99176.19
2022-10-23T05:44:03.702Z,99179.59
2022-10-23T05:46:30.262Z,99184.78
2022-10-23T05:48:56.888Z,99188.19
2022-10-23T05:51:23.620Z,99188.19
2022-10-23T05:53:50.732Z,99178.81
2022-10-23T05:56:17.876Z,99181.41
2022-10-23T05:58:45.271Z,99180.63
2022-10-23T06:01:14.048Z,99178.94
2022-10-23T06:03:41.095Z,99182.41
2022-10-23T06:06:07.830Z,99178.19
2022-10-23T06:08:34.643Z,99166.28
2022-10-23T06:11:11.975Z,99183.44
2022-10-23T06:13:39.539Z,99186.94
2022-10-23T06:16:32.351Z,99187.13
2022-10-23T06:18:59.781Z,99186.34
2022-10-23T06:21:26.343Z,99182.06
2022-10-23T06:23:53.098Z,99177.81
2022-10-23T06:26:19.746Z,99182.13
2022-10-23T06:28:46.341Z,99186.44
2022-10-23T06:31:15.737Z,99201.00
2022-10-23T06:33:42.283Z,99207.84
2022-10-23T06:36:10.651Z,99211.25
2022-10-23T06:38:40.230Z,99209.50
2022-10-23T06:41:12.539Z,99204.38
2022-10-23T06:43:39.157Z,99209.50
2022-10-23T06:46:05.786Z,99211.22
2022-10-23T06:48:32.586Z,99207.78
2022-10-23T06:50:59.745Z,99206.06
2022-10-23T06:53:26.347Z,99208.56
2022-10-23T06:55:55.374Z,99209.50
2022-10-23T06:58:22.247Z,99206.13
2022-10-23T07:00:48.882Z,99204.47
2022-10-23T07:03:15.521Z,99195.09
2022-10-23T07:05:44.766Z,99201.13
2022-10-23T07:08:11.450Z,99201.19
2022-10-23T07:10:38.075Z,99196.13
2022-10-23T07:13:04.632Z,99201.31
2022-10-23T07:15:31.202Z,99209.06
2022-10-23T07:17:57.725Z,99191.97
2022-10-23T07:20:24.452Z,99202.28
2022-10-23T07:22:55.916Z,99204.00
2022-10-23T07:25:23.243Z,99208.31
2022-10-23T07:27:50.520Z,99202.38
2022-10-23T07:30:17.332Z,99197.31
2022-10-23T07:32:44.606Z,99205.06
2022-10-23T07:37:44.964Z,99196.66
2022-10-23T07:40:12.081Z,99205.16
2022-10-23T07:42:38.942Z,99197.56
2022-10-23T07:45:07.514Z,99199.28
2022-10-23T07:47:34.393Z,99195.97
2022-10-23T07:50:00.971Z,99196.00
2022-10-23T07:52:30.799Z,99196.88
2022-10-23T07:55:00.099Z,99199.47
2022-10-23T07:57:26.706Z,99205.47
2022-10-23T07:59:54.620Z,99202.91
2022-10-23T08:02:21.274Z,99199.50
2022-10-23T08:04:51.359Z,99211.47
2022-10-23T08:07:18.004Z,99217.47
2022-10-23T08:09:44.535Z,99214.88
2022-10-23T08:12:11.086Z,99209.78
2022-10-23T08:14:37.659Z,99219.19
2022-10-23T08:17:05.256Z,99220.00
2022-10-23T08:19:32.342Z,99212.34
2022-10-23T08:21:58.921Z,99225.22
2022-10-23T08:24:25.538Z,99221.75
2022-10-23T08:26:52.112Z,99227.72
2022-10-23T08:29:18.732Z,99225.16
2022-10-23T08:31:45.301Z,99223.50
2022-10-23T08:34:12.041Z,99226.94
2022-10-23T08:36:39.343Z,99230.38
2022-10-23T08:39:06.660Z,99231.25
2022-10-23T08:41:38.643Z,99231.34
2022-10-23T08:44:31.591Z,99228.78
2022-10-23T08:47:17.932Z,99229.75
2022-10-23T08:49:47.181Z,99227.22
2022-10-23T08:52:30.052Z,99236.69
2022-10-23T08:54:57.128Z,99236.72
2022-10-23T08:57:26.229Z,99235.06
2022-10-23T08:59:58.873Z,99239.38
2022-10-23T09:02:25.397Z,99245.41
2022-10-23T09:04:54.089Z,99240.28
2022-10-23T09:07:45.651Z,99245.50
2022-10-23T09:10:30.756Z,99244.81
2022-10-23T09:13:12.370Z,99242.31
2022-10-23T09:15:47.262Z,99242.44
2022-10-23T09:18:17.637Z,99238.16
2022-10-23T09:20:46.332Z,99233.91
2022-10-23T09:23:17.956Z,99239.06
2022-10-23T09:25:46.550Z,99241.69
2022-10-23T09:28:20.953Z,99242.47
2022-10-23T09:30:48.921Z,99238.22
2022-10-23T09:33:27.000Z,99239.03
2022-10-23T09:36:19.682Z,99244.13
2022-10-23T09:38:46.160Z,99233.88
2022-10-23T09:41:37.240Z,99244.13
2022-10-23T09:44:22.362Z,99246.66
2022-10-23T09:46:54.954Z,99242.44
2022-10-23T09:49:25.475Z,99236.41
2022-10-23T09:51:59.407Z,99235.59
2022-10-23T09:54:26.316Z,99238.16
2022-10-23T09:56:55.000Z,99239.00
2022-10-23T09:59:30.103Z,99246.75
2022-10-23T10:02:03.975Z,99246.72
2022-10-23T10:04:40.532Z,99242.44
2022-10-23T10:07:19.933Z,99246.72
2022-10-23T10:09:46.830Z,99244.13
2022-10-23T10:12:34.612Z,99248.44
2022-10-23T10:15:31.964Z,99246.75
2022-10-23T10:18:13.608Z,99235.63
2022-10-23T10:21:07.816Z,99234.78
2022-10-23T10:23:43.557Z,99231.34
2022-10-23T10:26:32.102Z,99231.34
2022-10-23T10:29:25.802Z,99226.19
2022-10-23T10:31:54.935Z,99230.53
2022-10-23T10:34:27.496Z,99228.81
2022-10-23T10:37:10.192Z,99223.75
2022-10-23T10:39:52.694Z,99218.63
2022-10-23T10:42:38.195Z,99224.75
2022-10-23T10:45:54.570Z,99218.81
2022-10-23T10:48:48.734Z,99222.28
2022-10-23T10:51:31.644Z,99225.00
2022-10-23T10:54:14.744Z,99220.16
2022-10-23T10:56:43.794Z,99209.97
2022-10-23T10:59:23.406Z,99202.28
2022-10-23T11:02:02.283Z,99196.97
2022-10-23T11:04:28.907Z,99186.78
2022-10-23T11:06:57.463Z,99191.53
2022-10-23T11:09:29.464Z,99183.72
2022-10-23T11:11:56.359Z,99188.22
2022-10-23T11:14:25.779Z,99195.38
2022-10-23T11:17:16.918Z,99201.47
2022-10-23T11:19:53.985Z,99197.91
2022-10-23T11:22:40.935Z,99177.97
2022-10-23T11:25:38.242Z,99175.75
2022-10-23T11:28:39.571Z,99176.94
2022-10-23T11:31:25.342Z,99182.25
2022-10-23T11:34:20.033Z,99190.69
2022-10-23T11:36:46.533Z,99195.38
2022-10-23T11:39:19.096Z,99210.03
2022-10-23T11:41:55.285Z,99207.47
2022-10-23T11:44:36.744Z,99208.31
2022-10-23T11:47:23.377Z,99213.47
2022-10-23T11:49:49.909Z,99216.03
2022-10-23T11:52:25.134Z,99216.06
2022-10-23T11:55:02.094Z,99217.78
2022-10-23T11:57:28.743Z,99199.75
2022-10-23T11:59:57.461Z,99197.03
2022-10-23T12:02:34.360Z,99188.28
2022-10-23T12:05:06.776Z,99206.13
2022-10-23T12:07:40.412Z,99209.53
2022-10-23T12:10:29.944Z,99207.44
2022-10-23T12:12:59.388Z,99215.00
2022-10-23T12:15:26.797Z,99209.19
2022-10-23T12:17:55.453Z,99224.66
2022-10-23T12:20:46.620Z,99220.38
2022-10-23T12:23:24.220Z,99223.78
2022-10-23T12:26:11.313Z,99231.50
2022-10-23T12:28:47.176Z,99221.19
2022-10-23T12:31:31.952Z,99230.69
2022-10-23T12:35:00.360Z,99225.66
2022-10-23T12:37:44.198Z,99215.66
2022-10-23T12:40:12.122Z,99231.13
2022-10-23T12:42:39.057Z,99224.34
2022-10-23T12:45:19.314Z,99237.38
2022-10-23T12:47:47.437Z,99241.81
2022-10-23T12:50:20.599Z,99235.81
2022-10-23T12:53:04.266Z,99244.34
2022-10-23T12:55:46.702Z,99252.09
2022-10-23T12:58:32.015Z,99237.69
2022-10-23T13:01:00.932Z,99252.91
2022-10-23T13:03:29.774Z,99246.72
2022-10-23T13:05:59.087Z,99267.56
2022-10-23T13:08:34.041Z,99262.44
2022-10-23T13:11:01.148Z,99274.50
2022-10-23T13:13:28.236Z,99268.44
2022-10-23T13:15:54.867Z,99276.16
2022-10-23T13:18:21.411Z,99276.97
2022-10-23T13:20:53.659Z,99278.69
2022-10-23T13:23:34.630Z,99282.97
2022-10-23T13:26:21.351Z,99288.06
2022-10-23T13:28:48.354Z,99303.47
2022-10-23T13:31:14.888Z,99300.88
2022-10-23T13:33:42.686Z,99304.31
2022-10-23T13:36:09.206Z,99306.00
2022-10-23T13:38:38.165Z,99304.28
2022-10-23T13:41:06.843Z,99313.66
2022-10-23T13:43:34.313Z,99309.34
2022-10-23T13:46:01.621Z,99324.75
2022-10-23T13:48:28.627Z,99322.13
2022-10-23T13:51:06.342Z,99318.66
2022-10-23T13:53:33.132Z,99335.84
2022-10-23T13:55:59.769Z,99336.66
2022-10-23T13:58:26.416Z,99335.75
2022-10-23T14:00:53.266Z,99342.59
2022-10-23T14:03:24.209Z,99346.84
2022-10-23T14:05:51.629Z,99356.19
2022-10-23T14:08:18.571Z,99359.53
2022-10-23T14:10:45.738Z,99374.91
2022-10-23T14:13:12.302Z,99364.56
2022-10-23T14:15:39.151Z,99356.78
2022-10-23T14:18:08.260Z,99369.59
2022-10-23T14:20:35.351Z,99359.28
2022-10-23T14:23:01.898Z,99366.09
2022-10-23T14:25:28.431Z,99366.94
2022-10-23T14:30:26.494Z,99366.88
2022-10-23T14:32:53.034Z,99373.66
2022-10-23T14:35:19.846Z,99373.59
2022-10-23T14:37:46.750Z,99369.31
2022-10-23T14:40:13.630Z,99368.47
2022-10-23T14:42:40.235Z,99368.44
2022-10-23T14:45:07.308Z,99367.56
2022-10-23T14:47:33.844Z,99373.53
2022-10-23T14:50:00.458Z,99372.59
2022-10-23T14:52:27.058Z,99384.59
2022-10-23T14:54:53.933Z,99374.28
2022-10-23T14:57:22.152Z,99382.00
2022-10-23T14:59:49.741Z,99391.31
2022-10-23T15:02:17.604Z,99393.88
2022-10-23T15:04:44.580Z,99396.50
2022-10-23T15:07:11.164Z,99390.47
2022-10-23T15:09:39.397Z,99404.16
2022-10-23T15:12:06.287Z,99399.81
2022-10-23T15:14:32.993Z,99407.59
2022-10-23T15:16:59.586Z,99400.69
2022-10-23T15:19:27.448Z,99410.97
2022-10-23T15:21:54.115Z,99406.72
2022-10-23T15:24:23.858Z,99413.53
2022-10-23T15:26:51.793Z,99422.09
2022-10-23T15:29:19.399Z,99425.47
2022-10-23T15:31:52.331Z,99427.16
2022-10-23T15:34:24.466Z,99427.16
2022-10-23T15:36:52.343Z,99440.00
2022-10-23T15:39:23.355Z,99443.41
2022-10-23T15:41:55.509Z,99443.38
2022-10-23T15:44:24.358Z,99443.41
2022-10-23T15:46:51.935Z,99441.72
2022-10-23T15:49:19.087Z,99450.25
2022-10-23T15:51:46.726Z,99448.56
2022-10-23T15:54:19.214Z,99444.22
2022-10-23T15:56:48.218Z,99442.53
2022-10-23T15:59:15.396Z,99445.09
2022-10-23T16:01:42.330Z,99441.72
2022-10-23T16:04:09.351Z,99440.81
2022-10-23T16:06:35.939Z,99453.63
2022-10-23T16:09:03.165Z,99457.97
2022-10-23T16:11:34.025Z,99460.47
2022-10-23T16:14:00.791Z,99463.00
2022-10-23T16:16:28.605Z,99459.56
2022-10-23T16:18:55.614Z,99468.19
2022-10-23T16:21:24.873Z,99469.88
2022-10-23T16:23:52.859Z,99469.00
2022-10-23T16:26:19.957Z,99475.03
2022-10-23T16:28:47.353Z,99477.59
2022-10-23T16:31:20.524Z,99474.16
2022-10-23T16:33:48.550Z,99481.88
2022-10-23T16:36:16.265Z,99481.88
2022-10-23T16:38:42.984Z,99479.34
2022-10-23T16:41:09.585Z,99476.78
2022-10-23T16:43:36.201Z,99485.34
2022-10-23T16:46:15.142Z,99481.03
2022-10-23T16:48:42.440Z,99478.50
2022-10-23T16:51:14.549Z,99491.31
2022-10-23T16:53:42.360Z,99485.31
2022-10-23T16:56:11.126Z,99479.31
2022-10-23T16:58:40.920Z,99490.44
2022-10-23T17:01:20.613Z,99492.19
2022-10-23T17:03:49.896Z,99491.28
2022-10-23T17:06:19.915Z,99483.59
2022-10-23T17:08:47.079Z,99481.88
2022-10-23T17:11:28.086Z,99490.38
2022-10-23T17:13:59.332Z,99483.53
2022-10-23T17:16:38.379Z,99484.38
2022-10-23T17:19:16.010Z,99482.69
2022-10-23T17:21:48.049Z,99483.59
2022-10-23T17:24:14.744Z,99480.97
2022-10-23T17:26:41.527Z,99486.16
2022-10-23T17:29:10.279Z,99480.97
2022-10-23T17:31:39.626Z,99486.09
2022-10-23T17:34:10.443Z,99486.97
2022-10-23T17:36:40.370Z,99498.06
2022-10-23T17:39:08.377Z,99497.16
2022-10-23T17:41:35.366Z,99495.44
2022-10-23T17:44:02.591Z,99491.16
2022-10-23T17:46:29.929Z,99498.88
2022-10-23T17:48:58.039Z,99505.72
2022-10-23T17:51:26.650Z,99506.56
2022-10-23T17:53:55.947Z,99509.13
2022-10-23T17:56:27.590Z,99516.84
2022-10-23T17:58:56.341Z,99517.69
2022-10-23T18:01:25.494Z,99511.72
2022-10-23T18:03:53.504Z,99508.28
2022-10-23T18:06:28.882Z,99503.16
2022-10-23T18:08:56.748Z,99506.56
2022-10-23T18:11:29.119Z,99516.84
2022-10-23T18:13:57.888Z,99510.00
2022-10-23T18:16:25.241Z,99520.31
2022-10-23T18:18:52.697Z,99519.44
2022-10-23T18:21:24.349Z,99524.59
2022-10-23T18:23:52.128Z,99524.59
2022-10-23T18:26:24.805Z,99524.59
2022-10-23T18:28:53.255Z,99522.03
2022-10-23T18:31:20.761Z,99523.72
2022-10-23T18:33:47.436Z,99518.56
2022-10-23T18:36:16.111Z,99522.84
2022-10-23T18:38:43.712Z,99521.16
2022-10-23T18:41:10.621Z,99519.41
2022-10-23T18:43:43.666Z,99521.97
2022-10-23T18:46:13.787Z,99530.56
2022-10-23T18:48:41.164Z,99535.66
2022-10-23T18:51:15.760Z,99526.25
2022-10-23T18:53:45.855Z,99526.34
2022-10-23T18:56:16.338Z,99528.03
2022-10-23T18:58:43.337Z,99533.16
2022-10-23T19:01:10.062Z,99530.53
2022-10-23T19:03:36.806Z,99529.66
2022-10-23T19:06:06.480Z,99527.97
2022-10-23T19:08:39.405Z,99526.25
2022-10-23T19:11:07.454Z,99535.66
2022-10-23T19:13:39.023Z,99531.34
2022-10-23T19:16:23.216Z,99530.41
2022-10-23T19:19:02.494Z,99536.38
2022-10-23T19:21:37.011Z,99539.81
2022-10-23T19:24:08.890Z,99536.34
2022-10-23T19:26:38.012Z,99538.09
2022-10-23T19:29:08.115Z,99537.25
2022-10-23T19:31:34.848Z,99537.25
2022-10-23T19:34:01.516Z,99547.53
2022-10-23T19:36:28.046Z,99552.59
2022-10-23T19:38:54.581Z,99550.09
2022-10-23T19:41:21.521Z,99538.97
2022-10-23T19:43:48.066Z,99546.66
2022-10-23T19:46:14.744Z,99544.16
2022-10-23T19:48:46.515Z,99552.66
2022-10-23T19:51:13.603Z,99548.38
2022-10-23T19:53:42.084Z,99560.34
2022-10-23T19:56:11.486Z,99553.50
2022-10-23T19:58:38.701Z,99555.22
2022-10-23T20:01:10.512Z,99550.94
2022-10-23T20:03:37.959Z,99557.00
2022-10-23T20:06:04.632Z,99569.81
2022-10-23T20:08:34.294Z,99563.03
2022-10-23T20:11:01.905Z,99556.13
2022-10-23T20:13:28.671Z,99568.09
2022-10-23T20:15:55.451Z,99566.38
2022-10-23T20:18:22.047Z,99567.25
2022-10-23T20:20:48.592Z,99560.47
2022-10-23T20:23:15.216Z,99563.09
2022-10-23T20:25:41.938Z,99562.19
2022-10-23T20:28:10.355Z,99563.03
2022-10-23T20:30:41.315Z,99566.44
2022-10-23T20:33:10.130Z,99572.47
2022-10-23T20:35:43.217Z,99561.38
2022-10-23T20:38:10.450Z,99565.66
2022-10-23T20:40:39.855Z,99575.88
2022-10-23T20:43:06.616Z,99569.88
2022-10-23T20:45:34.106Z,99579.34
2022-10-23T20:48:00.700Z,99571.66
2022-10-23T20:50:27.314Z,99562.25
2022-10-23T20:52:53.883Z,99563.09
2022-10-23T20:55:20.473Z,99563.94
2022-10-23T20:57:49.850Z,99569.03
2022-10-23T21:00:17.011Z,99571.66
2022-10-23T21:02:47.020Z,99557.03
2022-10-23T21:05:15.228Z,99557.03
2022-10-23T21:07:41.804Z,99545.06
2022-10-23T21:10:08.714Z,99551.06
2022-10-23T21:12:35.230Z,99554.47
2022-10-23T21:15:01.786Z,99558.75
2022-10-23T21:17:29.311Z,99563.09
2022-10-23T21:19:55.929Z,99556.25
2022-10-23T21:22:22.507Z,99558.75
2022-10-23T21:24:49.050Z,99553.69
2022-10-23T21:27:15.602Z,99567.38
2022-10-23T21:29:42.810Z,99568.19
2022-10-23T21:32:09.403Z,99565.59
2022-10-23T21:34:35.988Z,99579.22
2022-10-23T21:37:18.365Z,99574.94
2022-10-23T21:39:46.142Z,99576.66
2022-10-23T21:42:14.207Z,99580.94
2022-10-23T21:44:40.748Z,99578.38
2022-10-23T21:47:07.296Z,99581.00
2022-10-23T21:49:34.095Z,99590.41
2022-10-23T21:52:00.648Z,99584.41
2022-10-23T21:54:27.331Z,99580.16
2022-10-23T21:56:54.253Z,99589.63
2022-10-23T21:59:24.204Z,99587.91
2022-10-23T22:01:51.713Z,99580.16
2022-10-23T22:04:19.733Z,99587.91
2022-10-23T22:06:48.402Z,99584.47
2022-10-23T22:09:18.857Z,99586.13
2022-10-23T22:11:45.524Z,99585.34
2022-10-23T22:14:12.099Z,99592.97
2022-10-23T22:16:38.676Z,99590.41
2022-10-23T22:19:05.233Z,99592.13
2022-10-23T22:21:32.074Z,99589.56
2022-10-23T22:24:00.316Z,99595.56
2022-10-23T22:26:29.758Z,99599.00
2022-10-23T22:28:59.421Z,99604.16
2022-10-23T22:31:29.911Z,99591.31
2022-10-23T22:33:56.725Z,99599.84
2022-10-23T22:36:23.624Z,99602.41
2022-10-23T22:38:50.237Z,99595.56
2022-10-23T22:41:17.428Z,99595.53
2022-10-23T22:43:44.744Z,99603.19
2022-10-23T22:46:18.805Z,99603.25
2022-10-23T22:48:46.335Z,99598.91
2022-10-23T22:51:14.830Z,99613.44
2022-10-23T22:53:42.292Z,99610.09
2022-10-23T22:56:12.869Z,99612.63
2022-10-23T22:58:39.697Z,99617.78
2022-10-23T23:01:10.504Z,99613.50
2022-10-23T23:03:37.827Z,99615.22
2022-10-23T23:06:06.494Z,99619.56
2022-10-23T23:08:34.469Z,99618.72
2022-10-23T23:11:01.799Z,99629.03
2022-10-23T23:13:28.563Z,99625.56
2022-10-23T23:15:55.924Z,99634.16
2022-10-23T23:18:22.924Z,99632.41
2022-10-23T23:20:50.066Z,99625.56
2022-10-23T23:23:17.147Z,99629.03
2022-10-23T23:25:45.762Z,99628.19
2022-10-23T23:28:14.209Z,99626.47
2022-10-23T23:30:41.550Z,99629.81
2022-10-23T23:33:09.251Z,99621.28
2022-10-23T23:35:40.428Z,99623.91
2022-10-23T23:38:07.101Z,99630.78
2022-10-23T23:40:33.828Z,99617.00
2022-10-23T23:43:00.473Z,99623.91
2022-10-23T23:45:27.109Z,99620.53
2022-10-23T23:47:53.686Z,99606.78
2022-10-23T23:50:21.070Z,99607.63
2022-10-23T23:52:47.725Z,99591.44
2022-10-23T23:55:14.275Z,99608.50
2022-10-23T23:57:40.876Z,99622.19
